createdAt,value
2022-09-04T00:04:21.673Z,98885.91
2022-09-04T00:09:35.679Z,98879.00
2022-09-04T00:14:50.201Z,98874.97
2022-09-04T00:19:59.651Z,98881.06
2022-09-04T00:25:13.968Z,98882.84
2022-09-04T00:30:24.635Z,98897.56
2022-09-04T00:35:34.058Z,98893.56
2022-09-04T00:40:45.007Z,98885.50
2022-09-04T00:46:05.223Z,98891.72
2022-09-04T00:51:24.620Z,98896.59
2022-09-04T00:57:02.814Z,98901.69
2022-09-04T01:02:21.070Z,98910.13
2022-09-04T01:07:41.471Z,98906.94
2022-09-04T01:12:52.650Z,98920.06
2022-09-04T01:18:10.365Z,98911.25
2022-09-04T01:23:59.155Z,98920.34
2022-09-04T01:29:21.703Z,98911.06
2022-09-04T01:34:38.466Z,98915.34
2022-09-04T01:39:49.911Z,98923.06
2022-09-04T01:44:57.550Z,98923.97
2022-09-04T01:50:09.796Z,98917.41
2022-09-04T01:55:29.352Z,98921.50
2022-09-04T02:00:47.388Z,98915.22
2022-09-04T02:06:09.085Z,98917.25
2022-09-04T02:11:20.591Z,98920.09
2022-09-04T02:16:46.803Z,98923.53
2022-09-04T02:22:01.322Z,98923.53
2022-09-04T02:27:11.441Z,98913.16
2022-09-04T02:32:27.823Z,98913.34
2022-09-04T02:37:43.610Z,98930.94
2022-09-04T02:43:01.751Z,98930.47
2022-09-04T02:48:17.682Z,98937.38
2022-09-04T02:53:32.468Z,98937.41
2022-09-04T02:58:50.530Z,98932.69
2022-09-04T03:04:04.991Z,98939.44
2022-09-04T03:09:15.915Z,98933.16
2022-09-04T03:14:26.742Z,98938.66
2022-09-04T03:19:42.030Z,98944.78
2022-09-04T03:25:07.001Z,98949.66
2022-09-04T03:30:17.652Z,98945.72
2022-09-04T03:35:32.986Z,98953.13
2022-09-04T03:40:43.194Z,98951.84
2022-09-04T03:45:58.328Z,98953.44
2022-09-04T03:51:16.148Z,98953.59
2022-09-04T03:56:46.905Z,98957.53
2022-09-04T04:02:01.408Z,98956.44
2022-09-04T04:07:15.783Z,98964.88
2022-09-04T04:12:37.499Z,98966.94
2022-09-04T04:17:59.374Z,98956.88
2022-09-04T04:23:38.301Z,98969.81
2022-09-04T04:29:02.898Z,98975.28
2022-09-04T04:34:20.751Z,98983.91
2022-09-04T04:39:38.501Z,98975.28
2022-09-04T04:45:17.219Z,98986.72
2022-09-04T04:50:29.271Z,98993.88
2022-09-04T04:55:50.943Z,98991.59
2022-09-04T05:01:06.334Z,98993.38
2022-09-04T05:06:19.484Z,98999.00
2022-09-04T05:11:37.940Z,99003.81
2022-09-04T05:16:55.789Z,99023.19
2022-09-04T05:22:14.770Z,99017.25
2022-09-04T05:27:42.751Z,99020.34
2022-09-04T05:32:59.264Z,99020.75
2022-09-04T05:38:13.444Z,99025.72
2022-09-04T05:43:37.015Z,99036.69
2022-09-04T05:48:48.716Z,99038.78
2022-09-04T05:54:18.551Z,99044.78
2022-09-04T05:59:58.649Z,99052.06
2022-09-04T06:05:19.457Z,99059.41
2022-09-04T06:10:33.345Z,99060.91
2022-09-04T06:15:55.430Z,99066.69
2022-09-04T06:21:15.990Z,99073.03
2022-09-04T06:26:50.318Z,99078.69
2022-09-04T06:32:23.237Z,99077.56
2022-09-04T06:37:39.644Z,99078.38
2022-09-04T06:43:10.562Z,99085.50
2022-09-04T06:48:31.514Z,99094.94
2022-09-04T06:54:12.224Z,99091.00
2022-09-04T06:59:31.714Z,99103.31
2022-09-04T07:04:53.544Z,99106.47
2022-09-04T07:10:07.225Z,99115.16
2022-09-04T07:15:47.108Z,99110.09
2022-09-04T07:21:04.940Z,99135.81
2022-09-04T07:26:28.588Z,99130.31
2022-09-04T07:31:39.923Z,99130.78
2022-09-04T07:37:03.226Z,99134.09
2022-09-04T07:42:16.182Z,99136.56
2022-09-04T07:47:31.163Z,99139.22
2022-09-04T07:53:04.149Z,99146.53
2022-09-04T07:58:46.961Z,99145.13
2022-09-04T08:04:15.201Z,99157.88
2022-09-04T08:09:44.201Z,99162.13
2022-09-04T08:14:58.062Z,99155.50
2022-09-04T08:20:16.698Z,99155.06
2022-09-04T08:25:31.977Z,99172.88
2022-09-04T08:30:47.269Z,99181.16
2022-09-04T08:36:03.545Z,99175.09
2022-09-04T08:41:58.474Z,99186.84
2022-09-04T08:47:36.403Z,99185.56
2022-09-04T08:53:10.475Z,99194.53
2022-09-04T08:58:55.308Z,99196.44
2022-09-04T09:04:17.622Z,99190.16
2022-09-04T09:10:12.321Z,99191.75
2022-09-04T09:15:53.082Z,99178.97
2022-09-04T09:21:10.623Z,99174.75
2022-09-04T09:26:29.711Z,99191.19
2022-09-04T09:32:10.063Z,99187.78
2022-09-04T09:37:45.027Z,99178.63
2022-09-04T09:43:14.662Z,99176.56
2022-09-04T09:49:03.863Z,99187.94
2022-09-04T09:54:51.060Z,99183.91
2022-09-04T10:00:18.534Z,99187.97
2022-09-04T10:05:47.810Z,99184.75
2022-09-04T10:11:13.636Z,99168.50
2022-09-04T10:16:47.985Z,99177.47
2022-09-04T10:22:30.211Z,99173.09
2022-09-04T10:28:17.924Z,99169.25
2022-09-04T10:33:44.843Z,99173.84
2022-09-04T10:39:19.425Z,99168.50
2022-09-04T10:44:53.882Z,99185.06
2022-09-04T10:50:16.176Z,99172.00
2022-09-04T10:55:36.581Z,99179.66
2022-09-04T11:00:51.419Z,99189.41
2022-09-04T11:06:33.171Z,99184.44
2022-09-04T11:12:03.313Z,99180.06
2022-09-04T11:17:40.079Z,99181.34
2022-09-04T11:23:27.219Z,99188.34
2022-09-04T11:29:00.682Z,99195.75
2022-09-04T11:34:39.166Z,99203.00
2022-09-04T11:40:23.194Z,99197.78
2022-09-04T11:45:54.953Z,99198.69
2022-09-04T11:51:43.073Z,99201.31
2022-09-04T11:57:10.030Z,99197.63
2022-09-04T12:02:50.966Z,99206.09
2022-09-04T12:08:10.027Z,99208.63
2022-09-04T12:13:44.069Z,99211.75
2022-09-04T12:19:21.384Z,99204.44
2022-09-04T12:24:54.032Z,99216.56
2022-09-04T12:30:23.791Z,99212.09
2022-09-04T12:36:08.456Z,99209.91
2022-09-04T12:41:19.349Z,99215.44
2022-09-04T12:47:03.904Z,99213.44
2022-09-04T12:52:19.341Z,99210.44
2022-09-04T12:57:39.659Z,99209.66
2022-09-04T13:02:58.864Z,99200.81
2022-09-04T13:08:19.553Z,99203.84
2022-09-04T13:13:39.427Z,99211.34
2022-09-04T13:19:00.373Z,99198.59
2022-09-04T13:24:28.826Z,99205.00
2022-09-04T13:29:45.455Z,99203.50
2022-09-04T13:35:08.529Z,99200.06
2022-09-04T13:40:33.533Z,99211.81
2022-09-04T13:45:44.746Z,99214.31
2022-09-04T13:50:57.456Z,99200.41
2022-09-04T13:56:06.454Z,99209.69
2022-09-04T14:01:21.885Z,99201.03
2022-09-04T14:06:33.145Z,99198.84
2022-09-04T14:12:18.705Z,99208.50
2022-09-04T14:17:33.865Z,99205.84
2022-09-04T14:22:48.685Z,99215.50
2022-09-04T14:28:03.532Z,99208.59
2022-09-04T14:33:23.219Z,99199.63
2022-09-04T14:38:54.697Z,99210.38
2022-09-04T14:44:08.457Z,99213.94
2022-09-04T14:49:24.597Z,99216.25
2022-09-04T14:54:32.338Z,99210.03
2022-09-04T14:59:42.587Z,99212.69
2022-09-04T15:04:56.552Z,99227.31
2022-09-04T15:10:16.827Z,99233.38
2022-09-04T15:15:27.451Z,99236.19
2022-09-04T15:20:37.832Z,99242.03
2022-09-04T15:25:59.970Z,99236.09
2022-09-04T15:31:16.184Z,99237.69
2022-09-04T15:36:29.527Z,99237.59
2022-09-04T15:41:41.089Z,99234.72
2022-09-04T15:47:01.761Z,99233.94
2022-09-04T15:52:26.135Z,99247.41
2022-09-04T15:57:47.166Z,99244.72
2022-09-04T16:02:59.097Z,99248.44
2022-09-04T16:08:22.810Z,99241.09
2022-09-04T16:13:43.334Z,99251.25
2022-09-04T16:18:57.684Z,99252.84
2022-09-04T16:24:10.706Z,99268.00
2022-09-04T16:29:28.983Z,99265.28
2022-09-04T16:34:40.354Z,99266.72
2022-09-04T16:40:04.035Z,99274.06
2022-09-04T16:45:18.922Z,99270.50
2022-09-04T16:50:29.777Z,99274.97
2022-09-04T16:55:44.750Z,99277.63
2022-09-04T17:01:12.820Z,99288.56
2022-09-04T17:06:25.243Z,99289.75
2022-09-04T17:11:55.843Z,99287.03
2022-09-04T17:17:17.005Z,99283.03
2022-09-04T17:28:56.079Z,99291.69
2022-09-04T17:29:08.974Z,99286.06
2022-09-04T17:40:25.063Z,99296.28
2022-09-04T17:40:42.300Z,99291.44
2022-09-04T17:45:25.254Z,99308.78
2022-09-04T17:50:30.815Z,99320.03
2022-09-04T17:55:47.246Z,99319.31
2022-09-04T18:01:14.301Z,99327.44
2022-09-04T18:06:26.597Z,99332.09
2022-09-04T18:11:37.334Z,99344.47
2022-09-04T18:17:12.702Z,99349.88
2022-09-04T18:22:33.183Z,99351.78
2022-09-04T18:27:44.922Z,99351.34
2022-09-04T18:37:09.302Z,99365.44
2022-09-04T18:38:36.945Z,99371.22
2022-09-04T18:50:25.100Z,99373.91
2022-09-04T18:50:50.874Z,99373.72
2022-09-04T18:54:56.745Z,99383.38
2022-09-04T19:00:09.510Z,99391.88
2022-09-04T19:05:19.118Z,99389.53
2022-09-04T19:10:29.069Z,99393.31
2022-09-04T19:15:51.538Z,99388.84
2022-09-04T19:21:15.898Z,99390.66
2022-09-04T19:26:32.463Z,99387.59
2022-09-04T19:31:43.156Z,99396.91
2022-09-04T19:37:13.531Z,99404.19
2022-09-04T19:46:05.991Z,99410.91
2022-09-04T19:48:04.957Z,99405.84
2022-09-04T19:53:40.379Z,99408.22
2022-09-04T19:58:56.138Z,99406.75
2022-09-04T20:04:05.291Z,99410.13
2022-09-04T20:09:20.540Z,99415.09
2022-09-04T20:14:29.180Z,99412.19
2022-09-04T20:19:45.013Z,99416.75
2022-09-04T20:25:01.553Z,99420.09
2022-09-04T20:30:12.540Z,99417.09
2022-09-04T20:35:33.034Z,99417.94
2022-09-04T20:40:45.190Z,99416.78
2022-09-04T20:48:17.404Z,99422.28
2022-09-04T20:52:56.056Z,99431.13
2022-09-04T21:01:49.446Z,99429.81
2022-09-04T21:03:08.358Z,99433.97
2022-09-04T21:08:20.637Z,99435.34
2022-09-04T21:13:34.243Z,99439.66
2022-09-04T21:19:28.001Z,99445.84
2022-09-04T21:24:59.848Z,99450.50
2022-09-04T21:30:17.094Z,99451.59
2022-09-04T21:35:26.777Z,99449.63
2022-09-04T21:41:10.806Z,99458.38
2022-09-04T21:46:48.787Z,99462.88
2022-09-04T21:52:19.264Z,99463.06
2022-09-04T22:02:27.989Z,99455.91
2022-09-04T22:03:29.277Z,99466.06
2022-09-04T22:13:31.762Z,99465.63
2022-09-04T22:14:28.046Z,99470.06
2022-09-04T22:20:09.054Z,99465.97
2022-09-04T22:25:45.717Z,99464.25
2022-09-04T22:31:15.046Z,99462.63
2022-09-04T22:36:52.968Z,99459.44
2022-09-04T22:42:24.539Z,99467.09
2022-09-04T22:47:48.326Z,99458.47
2022-09-04T22:53:27.037Z,99463.19
2022-09-04T22:58:55.842Z,99464.84
2022-09-04T23:04:43.885Z,99457.22
2022-09-04T23:13:49.423Z,99455.03
2022-09-04T23:15:55.641Z,99458.38
2022-09-04T23:26:53.431Z,99452.84
2022-09-04T23:27:28.324Z,99456.81
2022-09-04T23:32:54.078Z,99457.28
2022-09-04T23:38:38.243Z,99457.59
2022-09-04T23:44:10.542Z,99453.66
2022-09-04T23:49:35.413Z,99452.84
2022-09-04T23:54:59.759Z,99453.69
